Charterhall, United Kingdom
Current Conditions -  °F | °C
As of 6:50 PM on Tuesday 27 Jan 2015 (Local Time) from EGQM Reporting Station
Broken Clouds Broken Clouds  
Wind Chill: 38°   Ceiling: 2200
Heat Index: 45°   Visibility: 6mi
Dew Point: 39°   Wind: 13mph
Humidity: 81%   Direction: 220°SW
Pressure: 29.97"   Gusts: NA
Location:  55.7°N, 2.38°W
Report Text: EGQM 271850Z AUTO 22011KT 9999 BKN022/// SCT200/// 07/04 Q1015
Loading
Personal Weather Stations






























Interactive Weather Map New forecast layout! Learn more

10-Day Weather Forecast

Advertisements
Track Severe Weather on mobile